createdAt,value
2019-02-23T00:00:19.593Z,100006.77
2019-02-23T00:02:48.371Z,100007.59
2019-02-23T00:05:17.102Z,100010.34
2019-02-23T00:07:45.826Z,100011.62
2019-02-23T00:10:14.706Z,100014.47
2019-02-23T00:12:43.428Z,100018.56
2019-02-23T00:15:12.159Z,100026.22
2019-02-23T00:17:41.179Z,100029.45
2019-02-23T00:20:10.109Z,100028.59
2019-02-23T00:22:40.120Z,100038.69
2019-02-23T00:25:09.025Z,100043.70
2019-02-23T00:27:37.763Z,100051.79
2019-02-23T00:30:09.724Z,100052.02
2019-02-23T00:32:38.625Z,100058.55
2019-02-23T00:35:07.358Z,100062.33
2019-02-23T00:37:36.079Z,100067.82
2019-02-23T00:40:05.877Z,100074.81
2019-02-23T00:42:34.622Z,100073.77
2019-02-23T00:45:03.353Z,100072.50
2019-02-23T00:47:33.298Z,100080.22
2019-02-23T00:50:02.020Z,100092.56
2019-02-23T00:52:30.748Z,100110.38
2019-02-23T00:54:59.648Z,100126.23
2019-02-23T00:57:28.380Z,100135.55
2019-02-23T00:59:57.112Z,100135.96
2019-02-23T01:02:25.888Z,100146.19
2019-02-23T01:04:54.613Z,100166.35
2019-02-23T01:07:23.433Z,100180.61
2019-02-23T01:09:52.290Z,100176.33
2019-02-23T01:12:21.030Z,100179.66
2019-02-23T01:14:49.763Z,100187.22
2019-02-23T01:17:18.534Z,100197.42
2019-02-23T01:19:48.183Z,100208.41
2019-02-23T01:22:17.081Z,100218.12
2019-02-23T01:24:45.859Z,100229.19
2019-02-23T01:27:14.598Z,100235.95
2019-02-23T01:29:43.368Z,100238.98
2019-02-23T01:32:12.169Z,100250.36
2019-02-23T01:34:40.900Z,100255.09
2019-02-23T01:37:09.632Z,100261.09
2019-02-23T01:39:38.436Z,100267.05
2019-02-23T01:42:07.370Z,100290.66
2019-02-23T01:44:36.101Z,100290.66
2019-02-23T01:47:05.202Z,100293.56
2019-02-23T01:49:34.242Z,100303.95
2019-02-23T01:52:02.980Z,100308.03
2019-02-23T01:54:32.162Z,100320.25
2019-02-23T01:57:00.902Z,100330.63
2019-02-23T01:59:29.619Z,100336.30
2019-02-23T02:01:59.019Z,100344.88
2019-02-23T02:04:27.927Z,100350.22
2019-02-23T02:06:56.658Z,100360.69
2019-02-23T02:09:25.985Z,100362.14
2019-02-23T02:11:54.907Z,100376.28
2019-02-23T02:14:23.629Z,100380.20
2019-02-23T02:16:52.421Z,100388.23
2019-02-23T02:19:21.142Z,100393.05
2019-02-23T02:21:50.071Z,100402.16
2019-02-23T02:24:18.956Z,100409.06
2019-02-23T02:26:47.683Z,100420.20
2019-02-23T02:29:16.403Z,100423.25
2019-02-23T02:31:45.168Z,100427.72
2019-02-23T02:34:15.485Z,100429.77
2019-02-23T02:36:44.210Z,100441.25
2019-02-23T02:39:14.086Z,100443.13
2019-02-23T02:41:42.814Z,100451.00
2019-02-23T02:44:11.574Z,100443.40
2019-02-23T02:46:40.319Z,100463.23
2019-02-23T02:49:09.146Z,100463.23
2019-02-23T02:51:37.874Z,100479.39
2019-02-23T02:54:06.646Z,100487.19
2019-02-23T02:56:35.377Z,100485.63
2019-02-23T02:59:04.107Z,100497.67
2019-02-23T03:01:32.906Z,100510.06
2019-02-23T03:04:01.626Z,100510.06
2019-02-23T03:06:30.361Z,100533.20
2019-02-23T03:08:59.165Z,100533.20
2019-02-23T03:11:27.905Z,100545.73
2019-02-23T03:13:56.623Z,100545.73
2019-02-23T03:16:25.510Z,100554.20
2019-02-23T03:18:54.230Z,100567.15
2019-02-23T03:21:22.960Z,100567.15
2019-02-23T03:23:51.869Z,100574.50
2019-02-23T03:26:20.591Z,100581.95
2019-02-23T03:28:49.309Z,100590.05
2019-02-23T03:31:18.266Z,100590.05
2019-02-23T03:33:46.994Z,100595.49
2019-02-23T03:36:15.711Z,100603.83
2019-02-23T03:38:44.916Z,100610.64
2019-02-23T03:41:13.647Z,100623.46
2019-02-23T03:43:42.372Z,100619.53
2019-02-23T03:46:11.161Z,100630.43
2019-02-23T03:48:39.903Z,100633.52
2019-02-23T03:51:08.646Z,100633.52
2019-02-23T03:53:37.580Z,100639.80
2019-02-23T03:56:06.410Z,100643.20
2019-02-23T03:58:35.145Z,100653.54
2019-02-23T04:01:03.923Z,100659.14
2019-02-23T04:03:32.635Z,100654.89
2019-02-23T04:06:01.373Z,100667.70
2019-02-23T04:08:30.204Z,100670.19
2019-02-23T04:10:58.929Z,100668.87
2019-02-23T04:13:27.653Z,100679.53
2019-02-23T04:15:56.937Z,100682.11
2019-02-23T04:18:25.662Z,100688.31
2019-02-23T04:21:01.791Z,100699.17
2019-02-23T04:23:24.923Z,100699.17
2019-02-23T04:25:53.646Z,100716.53
2019-02-23T04:28:22.369Z,100709.50
2019-02-23T04:30:51.417Z,100709.50
2019-02-23T04:33:20.198Z,100715.28
2019-02-23T04:35:48.912Z,100723.20
2019-02-23T04:38:17.785Z,100723.20
2019-02-23T04:40:46.518Z,100735.30
2019-02-23T04:43:15.250Z,100737.17
2019-02-23T04:45:44.022Z,100734.42
2019-02-23T04:48:12.744Z,100734.42
2019-02-23T04:50:41.478Z,100750.38
2019-02-23T04:53:10.436Z,100756.42
2019-02-23T04:55:39.181Z,100754.09
2019-02-23T04:58:07.916Z,100767.77
2019-02-23T05:00:36.803Z,100767.56
2019-02-23T05:03:05.547Z,100767.56
2019-02-23T05:05:34.276Z,100780.23
2019-02-23T05:08:04.368Z,100780.48
2019-02-23T05:10:33.112Z,100780.48
2019-02-23T05:13:01.830Z,100789.94
2019-02-23T05:15:31.140Z,100795.87
2019-02-23T05:17:59.954Z,100795.87
2019-02-23T05:20:28.679Z,100811.84
2019-02-23T05:22:57.562Z,100811.84
2019-02-23T05:25:26.284Z,100817.71
2019-02-23T05:27:55.017Z,100822.41
2019-02-23T05:30:23.929Z,100836.44
2019-02-23T05:32:52.663Z,100839.53
2019-02-23T05:35:21.459Z,100848.02
2019-02-23T05:37:50.326Z,100856.91
2019-02-23T05:40:19.052Z,100859.47
2019-02-23T05:42:47.778Z,100866.50
2019-02-23T05:45:16.805Z,100869.92
2019-02-23T05:47:45.545Z,100873.63
2019-02-23T05:50:14.257Z,100876.84
2019-02-23T05:52:43.022Z,100888.80
2019-02-23T05:55:11.848Z,100897.50
2019-02-23T05:57:40.577Z,100896.80
2019-02-23T06:00:12.664Z,100903.56
2019-02-23T06:02:41.395Z,100906.47
2019-02-23T06:05:10.110Z,100913.23
2019-02-23T06:07:38.920Z,100917.91
2019-02-23T06:10:09.644Z,100920.93
2019-02-23T06:12:38.366Z,100930.45
2019-02-23T06:15:10.293Z,100932.93
2019-02-23T06:17:39.022Z,100928.07
2019-02-23T06:20:09.048Z,100946.31
2019-02-23T06:22:38.261Z,100946.31
2019-02-23T06:25:08.184Z,100947.23
2019-02-23T06:27:36.918Z,100948.77
2019-02-23T06:30:09.225Z,100955.45
2019-02-23T06:32:37.956Z,100955.45
2019-02-23T06:35:08.886Z,100967.35
2019-02-23T06:37:37.868Z,100967.35
2019-02-23T06:40:09.202Z,100986.43
2019-02-23T06:42:37.993Z,100997.45
2019-02-23T06:45:10.056Z,101003.09
2019-02-23T06:47:38.782Z,101003.09
2019-02-23T06:50:08.204Z,101006.94
2019-02-23T06:52:37.101Z,101022.14
2019-02-23T06:55:07.021Z,101025.05
2019-02-23T06:57:35.819Z,101025.05
2019-02-23T07:00:09.556Z,101025.05
2019-02-23T07:02:38.299Z,101033.84
2019-02-23T07:05:07.043Z,101046.58
2019-02-23T07:07:35.807Z,101046.58
2019-02-23T07:10:06.278Z,101036.53
2019-02-23T07:12:35.033Z,101050.30
2019-02-23T07:15:04.409Z,101055.58
2019-02-23T07:17:33.131Z,101052.65
2019-02-23T07:20:03.160Z,101059.88
2019-02-23T07:22:33.749Z,101063.16
2019-02-23T07:25:02.379Z,101070.34
2019-02-23T07:27:31.119Z,101079.33
2019-02-23T07:30:00.402Z,101076.51
2019-02-23T07:32:29.142Z,101088.41
2019-02-23T07:34:57.887Z,101087.72
2019-02-23T07:37:26.660Z,101085.95
2019-02-23T07:39:55.386Z,101097.84
2019-02-23T07:42:24.118Z,101095.44
2019-02-23T07:44:52.887Z,101094.32
2019-02-23T07:47:21.622Z,101097.66
2019-02-23T07:49:50.368Z,101101.97
2019-02-23T07:52:26.289Z,101105.16
2019-02-23T07:54:52.442Z,101117.02
2019-02-23T07:57:21.166Z,101115.35
2019-02-23T07:59:50.208Z,101120.76
2019-02-23T08:02:18.934Z,101133.88
2019-02-23T08:04:47.653Z,101135.72
2019-02-23T08:07:16.436Z,101139.03
2019-02-23T08:09:45.156Z,101143.50
2019-02-23T08:12:13.874Z,101147.95
2019-02-23T08:14:42.777Z,101150.48
2019-02-23T08:17:11.520Z,101151.05
2019-02-23T08:19:41.355Z,101151.27
2019-02-23T08:22:10.113Z,101157.52
2019-02-23T08:24:38.852Z,101164.11
2019-02-23T08:27:07.241Z,101164.80
2019-02-23T08:29:36.122Z,101164.88
2019-02-23T08:32:04.854Z,101171.50
2019-02-23T08:34:33.595Z,101169.83
2019-02-23T08:37:03.349Z,101171.38
2019-02-23T08:39:32.110Z,101181.66
2019-02-23T08:42:00.836Z,101183.41
2019-02-23T08:44:30.341Z,101183.19
2019-02-23T08:46:59.057Z,101186.14
2019-02-23T08:49:27.788Z,101188.59
2019-02-23T08:51:56.560Z,101189.95
2019-02-23T08:54:25.291Z,101194.69
2019-02-23T08:56:55.387Z,101194.97
2019-02-23T08:59:24.408Z,101197.92
2019-02-23T09:01:53.120Z,101201.77
2019-02-23T09:04:21.833Z,101202.75
2019-02-23T09:06:50.726Z,101216.95
2019-02-23T09:09:19.458Z,101222.80
2019-02-23T09:11:48.187Z,101227.92
2019-02-23T09:14:17.057Z,101232.25
2019-02-23T09:16:45.777Z,101232.36
2019-02-23T09:19:14.495Z,101234.66
2019-02-23T09:21:43.617Z,101233.85
2019-02-23T09:24:12.333Z,101230.44
2019-02-23T09:26:41.056Z,101233.99
2019-02-23T09:29:09.824Z,101240.55
2019-02-23T09:31:38.553Z,101237.27
2019-02-23T09:34:07.282Z,101238.83
2019-02-23T09:36:36.067Z,101249.20
2019-02-23T09:39:05.580Z,101248.43
2019-02-23T09:41:34.453Z,101252.72
2019-02-23T09:44:04.421Z,101258.47
2019-02-23T09:46:33.135Z,101255.97
2019-02-23T09:49:01.863Z,101256.56
2019-02-23T09:51:30.673Z,101257.19
2019-02-23T09:53:59.392Z,101256.56
2019-02-23T09:56:28.111Z,101258.24
2019-02-23T09:58:56.894Z,101257.89
2019-02-23T10:01:25.605Z,101269.21
2019-02-23T10:03:54.327Z,101260.36
2019-02-23T10:06:23.113Z,101258.66
2019-02-23T10:08:51.831Z,101250.31
2019-02-23T10:11:20.553Z,101258.08
2019-02-23T10:13:49.819Z,101260.44
2019-02-23T10:16:18.531Z,101255.58
2019-02-23T10:18:47.253Z,101264.64
2019-02-23T10:21:16.090Z,101254.92
2019-02-23T10:23:44.818Z,101252.80
2019-02-23T10:26:13.540Z,101255.58
2019-02-23T10:28:42.308Z,101253.96
2019-02-23T10:31:11.025Z,101254.94
2019-02-23T10:33:47.409Z,101254.66
2019-02-23T10:36:10.361Z,101255.19
2019-02-23T10:38:39.073Z,101252.23
2019-02-23T10:41:07.798Z,101258.88
2019-02-23T10:43:36.606Z,101261.11
2019-02-23T10:46:05.336Z,101254.19
2019-02-23T10:48:34.054Z,101257.98
2019-02-23T10:51:02.920Z,101254.02
2019-02-23T10:53:33.005Z,101252.41
2019-02-23T10:56:01.936Z,101249.63
2019-02-23T10:58:30.703Z,101250.33
2019-02-23T11:00:59.423Z,101250.09
2019-02-23T11:03:28.135Z,101251.23
2019-02-23T11:05:57.276Z,101248.90
2019-02-23T11:08:25.991Z,101250.45
2019-02-23T11:10:54.731Z,101245.21
2019-02-23T11:13:23.581Z,101238.83
2019-02-23T11:15:52.314Z,101244.52
2019-02-23T11:18:21.061Z,101253.72
2019-02-23T11:20:49.858Z,101251.95
2019-02-23T11:23:18.580Z,101249.77
2019-02-23T11:25:47.295Z,101243.58
2019-02-23T11:28:16.109Z,101244.22
2019-02-23T11:30:44.839Z,101242.73
2019-02-23T11:33:13.576Z,101235.16
2019-02-23T11:35:42.377Z,101237.34
2019-02-23T11:38:11.113Z,101243.85
2019-02-23T11:40:39.852Z,101248.38
2019-02-23T11:43:08.626Z,101252.74
2019-02-23T11:45:37.399Z,101254.66
2019-02-23T11:48:06.126Z,101254.37
2019-02-23T11:50:34.913Z,101253.70
2019-02-23T11:53:03.658Z,101254.41
2019-02-23T11:55:32.392Z,101249.02
2019-02-23T11:58:01.201Z,101250.77
2019-02-23T12:00:29.964Z,101254.54
2019-02-23T12:02:58.685Z,101254.56
2019-02-23T12:05:28.041Z,101248.94
2019-02-23T12:07:56.797Z,101255.48
2019-02-23T12:10:25.614Z,101255.39
2019-02-23T12:12:54.697Z,101260.75
2019-02-23T12:15:24.287Z,101260.95
2019-02-23T12:17:53.007Z,101256.99
2019-02-23T12:20:21.887Z,101249.61
2019-02-23T12:22:50.610Z,101259.20
2019-02-23T12:25:19.337Z,101260.00
2019-02-23T12:27:48.228Z,101264.37
2019-02-23T12:30:16.943Z,101264.69
2019-02-23T12:32:45.719Z,101273.87
2019-02-23T12:35:14.503Z,101269.55
2019-02-23T12:37:43.241Z,101291.83
2019-02-23T12:40:12.364Z,101291.83
2019-02-23T12:42:41.237Z,101287.86
2019-02-23T12:45:11.999Z,101299.49
2019-02-23T12:47:40.880Z,101302.19
2019-02-23T12:50:11.732Z,101304.82
2019-02-23T12:52:40.469Z,101304.35
2019-02-23T12:55:11.094Z,101304.35
2019-02-23T12:57:39.895Z,101305.42
2019-02-23T13:00:11.544Z,101310.09
2019-02-23T13:02:40.332Z,101312.34
2019-02-23T13:05:09.247Z,101311.79
2019-02-23T13:07:38.577Z,101309.41
2019-02-23T13:10:11.447Z,101319.23
2019-02-23T13:12:49.134Z,101319.23
2019-02-23T13:15:21.131Z,101326.59
2019-02-23T13:18:07.937Z,101323.77
2019-02-23T13:20:51.606Z,101338.23
2019-02-23T13:23:48.197Z,101342.14
2019-02-23T13:26:36.061Z,101342.28
2019-02-23T13:29:07.792Z,101345.57
2019-02-23T13:31:42.471Z,101347.98
2019-02-23T13:34:29.226Z,101347.98
2019-02-23T13:37:19.100Z,101350.61
2019-02-23T13:39:53.542Z,101349.88
2019-02-23T13:42:43.179Z,101349.88
2019-02-23T13:45:18.220Z,101355.09
2019-02-23T13:47:52.723Z,101363.05
2019-02-23T13:50:30.551Z,101400.58
2019-02-23T13:53:21.724Z,101369.11
2019-02-23T13:56:21.549Z,101369.11
2019-02-23T13:59:17.546Z,101372.65
2019-02-23T14:02:18.209Z,101372.65
2019-02-23T14:05:14.098Z,101374.27
2019-02-23T14:08:21.733Z,101374.27
2019-02-23T14:11:08.414Z,101379.28
2019-02-23T14:13:43.295Z,101390.66
2019-02-23T14:16:26.808Z,101387.40
2019-02-23T14:19:04.617Z,101392.54
2019-02-23T14:21:58.997Z,101392.59
2019-02-23T14:24:50.226Z,101395.53
2019-02-23T14:27:31.503Z,101395.53
2019-02-23T14:30:15.520Z,101402.44
2019-02-23T14:32:59.105Z,101405.86
2019-02-23T14:35:39.562Z,101400.70
2019-02-23T14:38:29.289Z,101408.40
2019-02-23T14:41:09.670Z,101408.69
2019-02-23T14:43:44.246Z,101405.47
2019-02-23T14:46:37.135Z,101412.97
2019-02-23T14:49:36.328Z,101416.77
2019-02-23T14:52:15.561Z,101418.33
2019-02-23T14:55:03.431Z,101421.32
2019-02-23T14:57:43.731Z,101429.61
2019-02-23T15:00:21.384Z,101429.61
2019-02-23T15:02:59.310Z,101432.72
2019-02-23T15:05:39.853Z,101444.95
2019-02-23T15:08:23.283Z,101440.78
2019-02-23T15:10:57.462Z,101444.77
2019-02-23T15:13:31.929Z,101443.95
2019-02-23T15:16:38.441Z,101445.86
2019-02-23T15:19:33.463Z,101449.81
2019-02-23T15:22:22.974Z,101461.20
2019-02-23T15:25:12.923Z,101460.48
2019-02-23T15:27:39.547Z,101462.70
2019-02-23T15:30:20.226Z,101469.23
2019-02-23T15:32:54.845Z,101472.53
2019-02-23T15:35:26.621Z,101474.92
2019-02-23T15:38:14.762Z,101474.57
2019-02-23T15:40:58.583Z,101480.20
2019-02-23T15:43:45.369Z,101474.51
2019-02-23T15:46:29.561Z,101479.61
2019-02-23T15:49:30.571Z,101482.89
2019-02-23T15:52:00.353Z,101483.97
2019-02-23T15:54:29.355Z,101487.48
2019-02-23T15:56:58.259Z,101497.03
2019-02-23T15:59:27.632Z,101501.13
2019-02-23T16:01:57.169Z,101507.05
2019-02-23T16:04:25.902Z,101510.91
2019-02-23T16:06:54.787Z,101518.30
2019-02-23T16:09:23.559Z,101524.53
2019-02-23T16:11:52.248Z,101526.25
2019-02-23T16:14:21.043Z,101528.72
2019-02-23T16:16:49.846Z,101532.39
2019-02-23T16:19:18.592Z,101543.09
2019-02-23T16:21:47.431Z,101546.84
2019-02-23T16:24:16.168Z,101553.48
2019-02-23T16:26:44.906Z,101558.87
2019-02-23T16:29:13.895Z,101558.87
2019-02-23T16:31:42.773Z,101562.28
2019-02-23T16:34:11.514Z,101574.14
2019-02-23T16:36:40.304Z,101579.33
2019-02-23T16:39:10.435Z,101577.18
2019-02-23T16:41:39.233Z,101585.03
2019-02-23T16:44:08.116Z,101582.05
2019-02-23T16:46:36.848Z,101593.18
2019-02-23T16:49:05.668Z,101591.31
2019-02-23T16:51:34.455Z,101598.12
2019-02-23T16:54:03.297Z,101592.17
2019-02-23T16:56:31.988Z,101602.27
2019-02-23T16:59:00.843Z,101598.60
2019-02-23T17:01:29.589Z,101608.89
2019-02-23T17:03:58.310Z,101610.13
2019-02-23T17:06:27.323Z,101610.99
2019-02-23T17:08:56.056Z,101614.21
2019-02-23T17:11:24.810Z,101612.64
2019-02-23T17:13:53.763Z,101617.59
2019-02-23T17:16:22.509Z,101619.52
2019-02-23T17:18:51.236Z,101621.41
2019-02-23T17:21:20.118Z,101624.01
2019-02-23T17:23:48.840Z,101629.61
2019-02-23T17:26:17.586Z,101622.91
2019-02-23T17:28:46.374Z,101624.34
2019-02-23T17:31:15.110Z,101624.97
2019-02-23T17:33:43.848Z,101629.14
2019-02-23T17:36:13.052Z,101627.37
2019-02-23T17:38:44.728Z,101628.47
2019-02-23T17:41:12.259Z,101631.70
2019-02-23T17:43:41.260Z,101642.41
2019-02-23T17:46:09.992Z,101639.06
2019-02-23T17:48:38.719Z,101637.95
2019-02-23T17:51:07.504Z,101641.80
2019-02-23T17:53:36.236Z,101645.80
2019-02-23T17:56:12.075Z,101651.86
2019-02-23T17:58:35.537Z,101650.74
2019-02-23T18:01:04.266Z,101643.17
2019-02-23T18:03:32.994Z,101652.00
2019-02-23T18:06:01.900Z,101652.30
2019-02-23T18:08:30.603Z,101652.19
2019-02-23T18:11:00.510Z,101655.37
2019-02-23T18:13:29.870Z,101646.20
2019-02-23T18:15:58.598Z,101658.38
2019-02-23T18:18:27.341Z,101657.59
2019-02-23T18:20:56.138Z,101661.91
2019-02-23T18:23:24.865Z,101667.20
2019-02-23T18:25:53.596Z,101662.72
2019-02-23T18:28:22.398Z,101667.13
2019-02-23T18:30:51.126Z,101673.77
2019-02-23T18:33:24.474Z,101668.28
2019-02-23T18:35:53.297Z,101671.31
2019-02-23T18:38:22.183Z,101671.64
2019-02-23T18:40:50.916Z,101677.75
2019-02-23T18:43:19.810Z,101673.52
2019-02-23T18:45:48.535Z,101669.08
2019-02-23T18:48:17.258Z,101676.77
2019-02-23T18:50:47.707Z,101676.77
2019-02-23T18:53:16.438Z,101677.41
2019-02-23T18:55:45.164Z,101678.34
2019-02-23T18:58:14.059Z,101672.75
2019-02-23T19:00:42.834Z,101672.75
2019-02-23T19:03:11.522Z,101680.91
2019-02-23T19:05:40.544Z,101681.89
2019-02-23T19:08:09.272Z,101688.67
2019-02-23T19:10:38.002Z,101681.89
2019-02-23T19:13:08.472Z,101693.00
2019-02-23T19:15:37.372Z,101693.00
2019-02-23T19:18:06.094Z,101692.19
2019-02-23T19:20:34.952Z,101686.91
2019-02-23T19:23:03.690Z,101701.63
2019-02-23T19:25:32.421Z,101700.57
2019-02-23T19:28:01.227Z,101704.19
2019-02-23T19:30:29.965Z,101704.92
2019-02-23T19:33:01.642Z,101706.53
2019-02-23T19:35:30.808Z,101704.56
2019-02-23T19:37:59.546Z,101704.56
2019-02-23T19:40:29.719Z,101713.79
2019-02-23T19:42:58.804Z,101713.79
2019-02-23T19:45:27.529Z,101712.44
2019-02-23T19:47:56.262Z,101704.85
2019-02-23T19:50:31.391Z,101704.85
2019-02-23T19:53:00.167Z,101708.78
2019-02-23T19:55:28.926Z,101710.98
2019-02-23T19:57:57.821Z,101719.62
2019-02-23T20:00:26.619Z,101717.91
2019-02-23T20:02:58.177Z,101717.91
2019-02-23T20:05:27.247Z,101722.27
2019-02-23T20:07:56.078Z,101725.02
2019-02-23T20:10:24.817Z,101727.94
2019-02-23T20:12:53.625Z,101727.94
2019-02-23T20:15:26.418Z,101730.69
2019-02-23T20:17:58.130Z,101726.75
2019-02-23T20:20:28.606Z,101733.16
2019-02-23T20:22:57.359Z,101729.31
2019-02-23T20:25:26.072Z,101728.25
2019-02-23T20:27:54.949Z,101732.79
2019-02-23T20:30:23.678Z,101735.09
2019-02-23T20:32:52.489Z,101741.58
2019-02-23T20:35:21.677Z,101743.22
2019-02-23T20:37:50.405Z,101734.79
2019-02-23T20:40:19.226Z,101735.66
2019-02-23T20:42:48.439Z,101730.44
2019-02-23T20:45:17.175Z,101730.19
2019-02-23T20:47:45.988Z,101732.59
2019-02-23T20:50:14.800Z,101729.83
2019-02-23T20:52:43.543Z,101722.95
2019-02-23T20:55:12.280Z,101721.13
2019-02-23T20:57:42.731Z,101726.69
2019-02-23T21:00:12.365Z,101723.55
2019-02-23T21:02:41.229Z,101726.50
2019-02-23T21:05:15.526Z,101730.23
2019-02-23T21:07:44.285Z,101730.95
2019-02-23T21:10:13.022Z,101727.30
2019-02-23T21:12:43.351Z,101741.09
2019-02-23T21:15:12.475Z,101738.62
2019-02-23T21:17:41.219Z,101736.61
2019-02-23T21:20:12.111Z,101743.41
2019-02-23T21:22:42.459Z,101741.30
2019-02-23T21:25:14.172Z,101743.41
2019-02-23T21:27:43.457Z,101740.57
2019-02-23T21:30:12.211Z,101739.80
2019-02-23T21:32:40.935Z,101740.95
2019-02-23T21:35:09.834Z,101739.00
2019-02-23T21:37:44.533Z,101734.31
2019-02-23T21:40:13.602Z,101734.00
2019-02-23T21:42:42.336Z,101726.03
2019-02-23T21:45:12.600Z,101726.89
2019-02-23T21:47:41.775Z,101722.20
2019-02-23T21:50:13.140Z,101722.75
2019-02-23T21:52:41.942Z,101723.67
2019-02-23T21:55:11.973Z,101723.67
2019-02-23T21:57:42.210Z,101721.78
2019-02-23T22:00:17.585Z,101724.92
2019-02-23T22:02:46.312Z,101724.92
2019-02-23T22:05:15.088Z,101718.91
2019-02-23T22:07:44.761Z,101713.75
2019-02-23T22:10:13.468Z,101713.75
2019-02-23T22:12:42.190Z,101723.15
2019-02-23T22:15:11.086Z,101723.15
2019-02-23T22:17:39.810Z,101718.05
2019-02-23T22:20:08.645Z,101734.02
2019-02-23T22:22:37.421Z,101730.16
2019-02-23T22:25:06.141Z,101730.18
2019-02-23T22:27:34.858Z,101730.18
2019-02-23T22:30:03.870Z,101726.97
2019-02-23T22:32:32.605Z,101729.19
2019-02-23T22:35:01.341Z,101724.66
2019-02-23T22:37:30.188Z,101722.13
2019-02-23T22:39:58.902Z,101722.13
2019-02-23T22:42:27.668Z,101722.97
2019-02-23T22:44:57.033Z,101719.84
2019-02-23T22:47:28.105Z,101717.13
2019-02-23T22:49:56.937Z,101717.13
2019-02-23T22:52:25.665Z,101708.50
2019-02-23T22:54:54.445Z,101704.23
2019-02-23T22:57:24.645Z,101704.23
2019-02-23T22:59:53.384Z,101714.22
2019-02-23T23:02:22.121Z,101715.35
2019-02-23T23:04:52.151Z,101715.15
2019-02-23T23:07:20.908Z,101715.15
2019-02-23T23:09:49.649Z,101706.08
2019-02-23T23:12:18.837Z,101706.08
2019-02-23T23:14:47.620Z,101706.28
2019-02-23T23:17:16.336Z,101706.28
2019-02-23T23:19:46.229Z,101710.11
2019-02-23T23:22:14.937Z,101707.30
2019-02-23T23:24:45.865Z,101707.50
2019-02-23T23:27:14.656Z,101707.50
2019-02-23T23:29:46.939Z,101716.57
2019-02-23T23:32:15.339Z,101716.57
2019-02-23T23:34:47.301Z,101709.33
2019-02-23T23:37:16.019Z,101711.13
2019-02-23T23:39:46.200Z,101715.96
2019-02-23T23:42:17.543Z,101715.96
2019-02-23T23:44:45.569Z,101717.55
2019-02-23T23:47:14.304Z,101718.04
2019-02-23T23:49:44.815Z,101718.04
2019-02-23T23:52:15.894Z,101722.38
2019-02-23T23:54:46.204Z,101709.53
2019-02-23T23:57:15.632Z,101709.53
2019-02-23T23:59:44.399Z,101718.52
